PWSweather.com
Personal Weather Stations
Station Observations
MENWDWX1
Menstrie, ScotlandGB

MenstrieScotlandGB

Lat: 56.148322, Lon: -3.85483

Elevation: 62

Station Type: Davis Vantage Pro 2

High Low Average
Temperature 61.2°F16.2°C 46.4°F8.0°C 51.8°F11.0°C
Dew Point 48.7°F9.3°C 39.9°F4.4°C 44.0°F6.7°C
Winds 13.8 mph 22.2 kmh Calm Calm 4.0 mph WSW6.4 kmh WSW
Wind Gusts 20.7 mph33.3 kmh -- 8.0 mph12.9 kmh
Humidity 78% 58% 75%
Pressure 30.08 in1018.6 mb 29.90 in1012.5 mb -
Precipitation 0.04 in1.0 mm - -
Hour Temp Dew Point Humidity Winds Wind Gusts Pressure Precip Precip Rate Daily Precip Total
12:00 AM 49.9°F9.9°C 43.0°F6.1°C 77% 4.6 mph WSW7.4 kmh WSW 9.2 mph14.8 kmh 29.91 in1012.9 mb - 0.00 in0.0 mm 0.00 in0.0 mm
12:05 AM 49.8°F9.9°C 42.9°F6.1°C 77% 2.3 mph WNW3.7 kmh WNW 3.5 mph5.6 kmh 29.91 in1012.9 mb - 0.00 in0.0 mm 0.00 in0.0 mm
12:10 AM 49.6°F9.8°C 42.7°F5.9°C 77% 6.9 mph WSW11.1 kmh WSW 10.4 mph16.7 kmh 29.91 in1012.9 mb - 0.00 in0.0 mm 0.00 in0.0 mm
12:15 AM 49.5°F9.7°C 42.6°F5.9°C 77% 3.5 mph WSW5.6 kmh WSW 8.1 mph13.0 kmh 29.91 in1012.9 mb - 0.00 in0.0 mm 0.00 in0.0 mm
12:20 AM 49.4°F9.7°C 42.5°F5.8°C 77% 6.9 mph WSW11.1 kmh WSW 12.7 mph20.4 kmh 29.91 in1012.9 mb - 0.00 in0.0 mm 0.00 in0.0 mm
12:25 AM 49.3°F9.6°C 42.4°F5.8°C 77% 3.5 mph WSW5.6 kmh WSW 12.7 mph20.4 kmh 29.91 in1012.9 mb - 0.00 in0.0 mm 0.00 in0.0 mm
12:30 AM 49.1°F9.5°C 42.2°F5.7°C 77% 3.5 mph W5.6 kmh W 8.1 mph13.0 kmh 29.90 in1012.5 mb - 0.00 in0.0 mm 0.00 in0.0 mm
12:35 AM 48.9°F9.4°C 42.0°F5.6°C 77% 1.2 mph WNW1.9 kmh WNW 8.1 mph13.0 kmh 29.91 in1012.9 mb - 0.00 in0.0 mm 0.00 in0.0 mm
12:40 AM 48.7°F9.3°C 41.8°F5.4°C 77% 2.3 mph WNW3.7 kmh WNW 3.5 mph5.6 kmh 29.91 in1012.9 mb - 0.00 in0.0 mm 0.00 in0.0 mm
12:45 AM 48.5°F9.2°C 41.6°F5.3°C 77% 2.3 mph WSW3.7 kmh WSW 6.9 mph11.1 kmh 29.91 in1012.9 mb - 0.00 in0.0 mm 0.00 in0.0 mm
12:50 AM 48.3°F9.1°C 41.4°F5.2°C 77% 3.5 mph W5.6 kmh W 8.1 mph13.0 kmh 29.91 in1012.9 mb - 0.00 in0.0 mm 0.00 in0.0 mm
12:55 AM 48.3°F9.1°C 41.4°F5.2°C 77% 3.5 mph W5.6 kmh W 6.9 mph11.1 kmh 29.91 in1012.9 mb - 0.00 in0.0 mm 0.00 in0.0 mm
01:00 AM 48.3°F9.1°C 41.4°F5.2°C 77% 4.6 mph WSW7.4 kmh WSW 10.4 mph16.7 kmh 29.91 in1012.9 mb - 0.00 in0.0 mm 0.00 in0.0 mm
01:05 AM 48.5°F9.2°C 41.6°F5.3°C 77% 4.6 mph W7.4 kmh W 11.5 mph18.5 kmh 29.92 in1013.2 mb - 0.00 in0.0 mm 0.00 in0.0 mm
01:10 AM 48.6°F9.2°C 41.7°F5.4°C 77% 5.8 mph W9.3 kmh W 10.4 mph16.7 kmh 29.92 in1013.2 mb - 0.00 in0.0 mm 0.00 in0.0 mm
01:15 AM 48.8°F9.3°C 41.9°F5.5°C 77% 6.9 mph WSW11.1 kmh WSW 10.4 mph16.7 kmh 29.91 in1012.9 mb - 0.00 in0.0 mm 0.00 in0.0 mm
01:20 AM 48.8°F9.3°C 41.9°F5.5°C 77% 4.6 mph WSW7.4 kmh WSW 11.5 mph18.5 kmh 29.91 in1012.9 mb - 0.00 in0.0 mm 0.00 in0.0 mm
01:25 AM 48.8°F9.3°C 41.9°F5.5°C 77% 4.6 mph WSW7.4 kmh WSW 8.1 mph13.0 kmh 29.92 in1013.2 mb - 0.00 in0.0 mm 0.00 in0.0 mm
01:30 AM 48.8°F9.3°C 41.9°F5.5°C 77% 2.3 mph W3.7 kmh W 3.5 mph5.6 kmh 29.92 in1013.2 mb - 0.00 in0.0 mm 0.00 in0.0 mm
01:35 AM 48.7°F9.3°C 41.8°F5.4°C 77% 2.3 mph NW3.7 kmh NW 2.3 mph3.7 kmh 29.92 in1013.2 mb - 0.00 in0.0 mm 0.00 in0.0 mm
01:40 AM 48.6°F9.2°C 41.7°F5.4°C 77% 2.3 mph NW3.7 kmh NW 3.5 mph5.6 kmh 29.92 in1013.2 mb - 0.00 in0.0 mm 0.00 in0.0 mm
01:45 AM 48.5°F9.2°C 41.6°F5.3°C 77% 2.3 mph WNW3.7 kmh WNW 4.6 mph7.4 kmh 29.92 in1013.2 mb - 0.00 in0.0 mm 0.00 in0.0 mm
01:50 AM 48.5°F9.2°C 41.6°F5.3°C 77% 2.3 mph WSW3.7 kmh WSW 2.3 mph3.7 kmh 29.93 in1013.5 mb - 0.00 in0.0 mm 0.00 in0.0 mm
01:55 AM 48.4°F9.1°C 41.9°F5.5°C 78% 2.3 mph NW3.7 kmh NW 3.5 mph5.6 kmh 29.93 in1013.5 mb - 0.00 in0.0 mm 0.00 in0.0 mm
02:00 AM 48.4°F9.1°C 41.9°F5.5°C 78% 2.3 mph W3.7 kmh W 3.5 mph5.6 kmh 29.93 in1013.5 mb - 0.00 in0.0 mm 0.00 in0.0 mm
02:05 AM 48.3°F9.1°C 41.8°F5.4°C 78% 3.5 mph W5.6 kmh W 6.9 mph11.1 kmh 29.93 in1013.5 mb - 0.00 in0.0 mm 0.00 in0.0 mm
02:10 AM 48.2°F9.0°C 41.3°F5.2°C 77% 2.3 mph W3.7 kmh W 3.5 mph5.6 kmh 29.93 in1013.5 mb - 0.00 in0.0 mm 0.00 in0.0 mm
02:15 AM 48.1°F8.9°C 41.2°F5.1°C 77% 2.3 mph W3.7 kmh W 3.5 mph5.6 kmh 29.93 in1013.5 mb - 0.00 in0.0 mm 0.00 in0.0 mm
02:20 AM 48.1°F8.9°C 41.6°F5.3°C 78% 4.6 mph W7.4 kmh W 10.4 mph16.7 kmh 29.93 in1013.5 mb - 0.01 in0.3 mm 0.01 in0.3 mm
02:25 AM 48.1°F8.9°C 41.6°F5.3°C 78% 2.3 mph WNW3.7 kmh WNW 3.5 mph5.6 kmh 29.93 in1013.5 mb - 0.01 in0.3 mm 0.01 in0.3 mm
02:30 AM 48.1°F8.9°C 41.6°F5.3°C 78% 2.3 mph WSW3.7 kmh WSW 6.9 mph11.1 kmh 29.93 in1013.5 mb - 0.00 in0.0 mm 0.01 in0.3 mm
02:35 AM 47.9°F8.8°C 41.4°F5.2°C 78% 2.3 mph W3.7 kmh W 3.5 mph5.6 kmh 29.93 in1013.5 mb - 0.00 in0.0 mm 0.01 in0.3 mm
02:40 AM 47.8°F8.8°C 41.2°F5.1°C 78% 1.2 mph WNW1.9 kmh WNW 3.5 mph5.6 kmh 29.93 in1013.5 mb - 0.00 in0.0 mm 0.01 in0.3 mm
02:45 AM 47.5°F8.6°C 41.0°F5.0°C 78% 2.3 mph W3.7 kmh W 3.5 mph5.6 kmh 29.93 in1013.5 mb - 0.00 in0.0 mm 0.01 in0.3 mm
02:50 AM 47.4°F8.6°C 40.9°F4.9°C 78% 2.3 mph W3.7 kmh W 3.5 mph5.6 kmh 29.93 in1013.5 mb - 0.00 in0.0 mm 0.01 in0.3 mm
02:55 AM 47.6°F8.7°C 41.0°F5.0°C 78% 2.3 mph WNW3.7 kmh WNW 6.9 mph11.1 kmh 29.93 in1013.5 mb - 0.00 in0.0 mm 0.01 in0.3 mm
03:00 AM 47.8°F8.8°C 41.3°F5.2°C 78% 2.3 mph WNW3.7 kmh WNW 3.5 mph5.6 kmh 29.93 in1013.5 mb - 0.00 in0.0 mm 0.01 in0.3 mm
03:05 AM 48.0°F8.9°C 41.5°F5.3°C 78% 3.5 mph W5.6 kmh W 3.5 mph5.6 kmh 29.93 in1013.5 mb - 0.00 in0.0 mm 0.01 in0.3 mm
03:10 AM 48.2°F9.0°C 41.6°F5.3°C 78% 3.5 mph W5.6 kmh W 6.9 mph11.1 kmh 29.93 in1013.5 mb - 0.00 in0.0 mm 0.01 in0.3 mm
03:15 AM 48.4°F9.1°C 41.8°F5.4°C 78% 2.3 mph W3.7 kmh W 6.9 mph11.1 kmh 29.93 in1013.5 mb - 0.00 in0.0 mm 0.01 in0.3 mm
03:20 AM 48.5°F9.2°C 42.0°F5.6°C 78% 5.8 mph W9.3 kmh W 11.5 mph18.5 kmh 29.93 in1013.5 mb - 0.00 in0.0 mm 0.01 in0.3 mm
03:25 AM 48.7°F9.3°C 42.1°F5.6°C 78% 5.8 mph W9.3 kmh W 8.1 mph13.0 kmh 29.94 in1013.9 mb - 0.00 in0.0 mm 0.01 in0.3 mm
03:30 AM 48.9°F9.4°C 42.0°F5.6°C 77% 8.1 mph W13.0 kmh W 11.5 mph18.5 kmh 29.94 in1013.9 mb - 0.00 in0.0 mm 0.01 in0.3 mm
03:35 AM 49.0°F9.4°C 42.1°F5.6°C 77% 3.5 mph WNW5.6 kmh WNW 11.5 mph18.5 kmh 29.94 in1013.9 mb - 0.00 in0.0 mm 0.01 in0.3 mm
03:40 AM 48.9°F9.4°C 42.0°F5.6°C 77% 3.5 mph WNW5.6 kmh WNW 6.9 mph11.1 kmh 29.94 in1013.9 mb - 0.00 in0.0 mm 0.01 in0.3 mm
03:45 AM 48.8°F9.3°C 41.9°F5.5°C 77% 5.8 mph WNW9.3 kmh WNW 10.4 mph16.7 kmh 29.94 in1013.9 mb - 0.00 in0.0 mm 0.01 in0.3 mm
03:50 AM 48.8°F9.3°C 42.2°F5.7°C 78% 3.5 mph NW5.6 kmh NW 3.5 mph5.6 kmh 29.94 in1013.9 mb - 0.00 in0.0 mm 0.01 in0.3 mm
03:55 AM 48.6°F9.2°C 42.0°F5.6°C 78% 3.5 mph NW5.6 kmh NW 4.6 mph7.4 kmh 29.94 in1013.9 mb - 0.00 in0.0 mm 0.01 in0.3 mm
04:00 AM 48.5°F9.2°C 42.0°F5.6°C 78% 4.6 mph WNW7.4 kmh WNW 8.1 mph13.0 kmh 29.94 in1013.9 mb - 0.00 in0.0 mm 0.01 in0.3 mm
04:05 AM 48.3°F9.1°C 41.8°F5.4°C 78% 4.6 mph W7.4 kmh W 8.1 mph13.0 kmh 29.94 in1013.9 mb - 0.00 in0.0 mm 0.01 in0.3 mm
04:10 AM 48.2°F9.0°C 41.6°F5.3°C 78% 2.3 mph W3.7 kmh W 3.5 mph5.6 kmh 29.94 in1013.9 mb - 0.00 in0.0 mm 0.01 in0.3 mm
04:15 AM 48.0°F8.9°C 41.5°F5.3°C 78% 3.5 mph WNW5.6 kmh WNW 3.5 mph5.6 kmh 29.94 in1013.9 mb - 0.00 in0.0 mm 0.01 in0.3 mm
04:20 AM 47.8°F8.8°C 41.3°F5.2°C 78% 2.3 mph W3.7 kmh W 5.8 mph9.3 kmh 29.94 in1013.9 mb - 0.00 in0.0 mm 0.01 in0.3 mm
04:25 AM 47.8°F8.8°C 41.3°F5.2°C 78% 4.6 mph W7.4 kmh W 9.2 mph14.8 kmh 29.94 in1013.9 mb - 0.00 in0.0 mm 0.01 in0.3 mm
04:30 AM 47.9°F8.8°C 41.4°F5.2°C 78% 3.5 mph WSW5.6 kmh WSW 3.5 mph5.6 kmh 29.94 in1013.9 mb - 0.00 in0.0 mm 0.01 in0.3 mm
04:35 AM 48.0°F8.9°C 41.5°F5.3°C 78% 2.3 mph WNW3.7 kmh WNW 8.1 mph13.0 kmh 29.94 in1013.9 mb - 0.00 in0.0 mm 0.01 in0.3 mm
04:40 AM 47.9°F8.8°C 41.4°F5.2°C 78% 3.5 mph WNW5.6 kmh WNW 5.8 mph9.3 kmh 29.94 in1013.9 mb - 0.00 in0.0 mm 0.01 in0.3 mm
04:45 AM 47.9°F8.8°C 41.4°F5.2°C 78% 4.6 mph W7.4 kmh W 6.9 mph11.1 kmh 29.95 in1014.2 mb - 0.00 in0.0 mm 0.01 in0.3 mm
04:50 AM 47.9°F8.8°C 41.4°F5.2°C 78% 2.3 mph W3.7 kmh W 6.9 mph11.1 kmh 29.95 in1014.2 mb - 0.00 in0.0 mm 0.01 in0.3 mm
04:55 AM 48.0°F8.9°C 41.5°F5.3°C 78% 2.3 mph W3.7 kmh W 3.5 mph5.6 kmh 29.95 in1014.2 mb - 0.00 in0.0 mm 0.01 in0.3 mm
05:00 AM 47.9°F8.8°C 41.4°F5.2°C 78% 2.3 mph W3.7 kmh W 2.3 mph3.7 kmh 29.95 in1014.2 mb - 0.00 in0.0 mm 0.01 in0.3 mm
05:05 AM 47.8°F8.8°C 41.3°F5.2°C 78% Calm Calm 1.2 mph1.9 kmh 29.95 in1014.2 mb - 0.00 in0.0 mm 0.01 in0.3 mm
05:10 AM 47.6°F8.7°C 41.1°F5.1°C 78% Calm Calm -- 29.95 in1014.2 mb - 0.00 in0.0 mm 0.01 in0.3 mm
05:15 AM 47.4°F8.6°C 40.9°F4.9°C 78% 2.3 mph W3.7 kmh W 3.5 mph5.6 kmh 29.95 in1014.2 mb - 0.00 in0.0 mm 0.01 in0.3 mm
05:20 AM 47.2°F8.4°C 40.7°F4.8°C 78% Calm Calm 1.2 mph1.9 kmh 29.96 in1014.6 mb - 0.00 in0.0 mm 0.01 in0.3 mm
05:25 AM 47.0°F8.3°C 40.5°F4.7°C 78% 1.2 mph W1.9 kmh W 2.3 mph3.7 kmh 29.95 in1014.2 mb - 0.00 in0.0 mm 0.01 in0.3 mm
05:30 AM 46.9°F8.3°C 40.4°F4.7°C 78% Calm Calm -- 29.95 in1014.2 mb - 0.01 in0.3 mm 0.02 in0.5 mm
05:35 AM 46.8°F8.2°C 40.3°F4.6°C 78% Calm Calm 2.3 mph3.7 kmh 29.96 in1014.6 mb - 0.00 in0.0 mm 0.02 in0.5 mm
05:40 AM 46.7°F8.2°C 40.2°F4.6°C 78% Calm Calm 2.3 mph3.7 kmh 29.96 in1014.6 mb - 0.00 in0.0 mm 0.02 in0.5 mm
05:45 AM 46.6°F8.1°C 40.1°F4.5°C 78% 2.3 mph E3.7 kmh E 3.5 mph5.6 kmh 29.96 in1014.6 mb - 0.00 in0.0 mm 0.02 in0.5 mm
05:50 AM 46.4°F8.0°C 39.9°F4.4°C 78% 3.5 mph E5.6 kmh E 3.5 mph5.6 kmh 29.96 in1014.6 mb - 0.00 in0.0 mm 0.02 in0.5 mm
05:55 AM 46.4°F8.0°C 39.9°F4.4°C 78% 3.5 mph N5.6 kmh N 3.5 mph5.6 kmh 29.97 in1014.9 mb - 0.00 in0.0 mm 0.02 in0.5 mm
06:00 AM 46.5°F8.1°C 40.0°F4.4°C 78% 2.3 mph NNW3.7 kmh NNW 3.5 mph5.6 kmh 29.97 in1014.9 mb - 0.00 in0.0 mm 0.02 in0.5 mm
06:05 AM 46.6°F8.1°C 40.1°F4.5°C 78% 1.2 mph W1.9 kmh W 2.3 mph3.7 kmh 29.97 in1014.9 mb - 0.00 in0.0 mm 0.02 in0.5 mm
06:10 AM 46.5°F8.1°C 40.0°F4.4°C 78% Calm Calm -- 29.97 in1014.9 mb - 0.00 in0.0 mm 0.02 in0.5 mm
06:15 AM 46.7°F8.2°C 40.2°F4.6°C 78% 1.2 mph WSW1.9 kmh WSW 3.5 mph5.6 kmh 29.98 in1015.2 mb - 0.00 in0.0 mm 0.02 in0.5 mm
06:20 AM 47.3°F8.5°C 40.8°F4.9°C 78% 2.3 mph SW3.7 kmh SW 3.5 mph5.6 kmh 29.98 in1015.2 mb - 0.00 in0.0 mm 0.02 in0.5 mm
06:25 AM 47.8°F8.8°C 41.3°F5.2°C 78% 2.3 mph WSW3.7 kmh WSW 3.5 mph5.6 kmh 29.98 in1015.2 mb - 0.00 in0.0 mm 0.02 in0.5 mm
06:30 AM 48.2°F9.0°C 41.6°F5.3°C 78% 2.3 mph WSW3.7 kmh WSW 6.9 mph11.1 kmh 29.98 in1015.2 mb - 0.00 in0.0 mm 0.02 in0.5 mm
06:35 AM 48.4°F9.1°C 41.8°F5.4°C 78% 2.3 mph WSW3.7 kmh WSW 5.8 mph9.3 kmh 29.98 in1015.2 mb - 0.00 in0.0 mm 0.02 in0.5 mm
06:40 AM 48.7°F9.3°C 42.1°F5.6°C 78% 2.3 mph SW3.7 kmh SW 3.5 mph5.6 kmh 29.98 in1015.2 mb - 0.00 in0.0 mm 0.02 in0.5 mm
06:45 AM 48.9°F9.4°C 42.4°F5.8°C 78% 4.6 mph WSW7.4 kmh WSW 6.9 mph11.1 kmh 29.98 in1015.2 mb - 0.00 in0.0 mm 0.02 in0.5 mm
06:50 AM 49.1°F9.5°C 42.5°F5.8°C 78% 1.2 mph WNW1.9 kmh WNW 2.3 mph3.7 kmh 29.98 in1015.2 mb - 0.00 in0.0 mm 0.02 in0.5 mm
06:55 AM 49.1°F9.5°C 42.5°F5.8°C 78% 2.3 mph W3.7 kmh W 3.5 mph5.6 kmh 29.99 in1015.6 mb - 0.00 in0.0 mm 0.02 in0.5 mm
07:00 AM 49.1°F9.5°C 42.5°F5.8°C 78% 2.3 mph W3.7 kmh W 3.5 mph5.6 kmh 29.99 in1015.6 mb - 0.00 in0.0 mm 0.02 in0.5 mm
07:05 AM 49.2°F9.6°C 42.6°F5.9°C 78% 2.3 mph W3.7 kmh W 3.5 mph5.6 kmh 29.99 in1015.6 mb - 0.00 in0.0 mm 0.02 in0.5 mm
07:10 AM 49.5°F9.7°C 42.9°F6.1°C 78% 3.5 mph W5.6 kmh W 9.2 mph14.8 kmh 29.99 in1015.6 mb - 0.00 in0.0 mm 0.02 in0.5 mm
07:15 AM 50.0°F10.0°C 43.4°F6.3°C 78% 3.5 mph W5.6 kmh W 11.5 mph18.5 kmh 29.99 in1015.6 mb - 0.00 in0.0 mm 0.02 in0.5 mm
07:20 AM 50.2°F10.1°C 43.6°F6.4°C 78% 4.6 mph W7.4 kmh W 6.9 mph11.1 kmh 29.99 in1015.6 mb - 0.00 in0.0 mm 0.02 in0.5 mm
07:25 AM 50.3°F10.2°C 43.7°F6.5°C 78% 6.9 mph W11.1 kmh W 11.5 mph18.5 kmh 29.99 in1015.6 mb - 0.00 in0.0 mm 0.02 in0.5 mm
07:30 AM 50.5°F10.3°C 43.9°F6.6°C 78% 9.2 mph WSW14.8 kmh WSW 17.3 mph27.8 kmh 29.99 in1015.6 mb - 0.00 in0.0 mm 0.02 in0.5 mm
07:35 AM 51.0°F10.6°C 44.4°F6.9°C 78% 9.2 mph WSW14.8 kmh WSW 17.3 mph27.8 kmh 30.00 in1015.9 mb - 0.00 in0.0 mm 0.02 in0.5 mm
07:40 AM 51.2°F10.7°C 44.6°F7.0°C 78% 6.9 mph W11.1 kmh W 12.7 mph20.4 kmh 30.00 in1015.9 mb - 0.00 in0.0 mm 0.02 in0.5 mm
07:45 AM 51.1°F10.6°C 44.4°F6.9°C 78% 3.5 mph W5.6 kmh W 11.5 mph18.5 kmh 30.00 in1015.9 mb - 0.00 in0.0 mm 0.02 in0.5 mm
07:50 AM 50.8°F10.4°C 44.2°F6.8°C 78% 4.6 mph WSW7.4 kmh WSW 8.1 mph13.0 kmh 30.00 in1015.9 mb - 0.00 in0.0 mm 0.02 in0.5 mm
07:55 AM 50.7°F10.4°C 44.1°F6.7°C 78% 4.6 mph WSW7.4 kmh WSW 10.4 mph16.7 kmh 30.00 in1015.9 mb - 0.00 in0.0 mm 0.02 in0.5 mm
08:00 AM 50.9°F10.5°C 44.3°F6.8°C 78% 4.6 mph WSW7.4 kmh WSW 3.5 mph5.6 kmh 30.00 in1015.9 mb - 0.00 in0.0 mm 0.02 in0.5 mm
08:05 AM 51.3°F10.7°C 44.7°F7.1°C 78% 4.6 mph WSW7.4 kmh WSW 9.2 mph14.8 kmh 30.01 in1016.3 mb - 0.00 in0.0 mm 0.02 in0.5 mm
08:10 AM 51.7°F10.9°C 45.1°F7.3°C 78% 5.8 mph WSW9.3 kmh WSW 8.1 mph13.0 kmh 30.01 in1016.3 mb - 0.00 in0.0 mm 0.02 in0.5 mm
08:15 AM 52.1°F11.2°C 45.1°F7.3°C 77% 4.6 mph WSW7.4 kmh WSW 13.8 mph22.2 kmh 30.01 in1016.3 mb - 0.00 in0.0 mm 0.02 in0.5 mm
08:20 AM 52.4°F11.3°C 45.4°F7.4°C 77% 11.5 mph WSW18.5 kmh WSW 17.3 mph27.8 kmh 30.01 in1016.3 mb - 0.00 in0.0 mm 0.02 in0.5 mm
08:25 AM 52.7°F11.5°C 45.7°F7.6°C 77% 9.2 mph WSW14.8 kmh WSW 15.0 mph24.1 kmh 30.01 in1016.3 mb - 0.00 in0.0 mm 0.02 in0.5 mm
08:30 AM 53.2°F11.8°C 45.8°F7.7°C 76% 11.5 mph WSW18.5 kmh WSW 15.0 mph24.1 kmh 30.01 in1016.3 mb - 0.00 in0.0 mm 0.02 in0.5 mm
08:35 AM 53.4°F11.9°C 46.0°F7.8°C 76% 8.1 mph WSW13.0 kmh WSW 12.7 mph20.4 kmh 30.01 in1016.3 mb - 0.00 in0.0 mm 0.02 in0.5 mm
08:40 AM 53.6°F12.0°C 46.2°F7.9°C 76% 9.2 mph WSW14.8 kmh WSW 11.5 mph18.5 kmh 30.01 in1016.3 mb - 0.00 in0.0 mm 0.02 in0.5 mm
08:45 AM 53.5°F11.9°C 46.1°F7.8°C 76% 8.1 mph WSW13.0 kmh WSW 16.1 mph25.9 kmh 30.02 in1016.6 mb - 0.00 in0.0 mm 0.02 in0.5 mm
08:50 AM 53.3°F11.8°C 46.3°F7.9°C 77% 3.5 mph W5.6 kmh W 10.4 mph16.7 kmh 30.02 in1016.6 mb - 0.00 in0.0 mm 0.02 in0.5 mm
08:55 AM 53.2°F11.8°C 46.5°F8.1°C 78% 4.6 mph W7.4 kmh W 8.1 mph13.0 kmh 30.02 in1016.6 mb - 0.00 in0.0 mm 0.02 in0.5 mm
09:00 AM 52.8°F11.6°C 46.1°F7.8°C 78% 3.5 mph WNW5.6 kmh WNW 5.8 mph9.3 kmh 30.02 in1016.6 mb - 0.00 in0.0 mm 0.02 in0.5 mm
09:05 AM 52.6°F11.4°C 45.9°F7.7°C 78% 2.3 mph WNW3.7 kmh WNW 3.5 mph5.6 kmh 30.03 in1016.9 mb - 0.00 in0.0 mm 0.02 in0.5 mm
09:10 AM 52.4°F11.3°C 45.4°F7.4°C 77% 2.3 mph W3.7 kmh W 3.5 mph5.6 kmh 30.03 in1016.9 mb - 0.00 in0.0 mm 0.02 in0.5 mm
09:15 AM 52.2°F11.2°C 45.2°F7.3°C 77% 4.6 mph WSW7.4 kmh WSW 5.8 mph9.3 kmh 30.02 in1016.6 mb - 0.00 in0.0 mm 0.02 in0.5 mm
09:20 AM 52.4°F11.3°C 45.4°F7.4°C 77% 2.3 mph W3.7 kmh W 3.5 mph5.6 kmh 30.03 in1016.9 mb - 0.00 in0.0 mm 0.02 in0.5 mm
09:25 AM 52.7°F11.5°C 45.7°F7.6°C 77% 5.8 mph WSW9.3 kmh WSW 11.5 mph18.5 kmh 30.03 in1016.9 mb - 0.00 in0.0 mm 0.02 in0.5 mm
09:30 AM 53.1°F11.7°C 46.1°F7.8°C 77% 10.4 mph WSW16.7 kmh WSW 15.0 mph24.1 kmh 30.03 in1016.9 mb - 0.00 in0.0 mm 0.02 in0.5 mm
09:35 AM 53.6°F12.0°C 46.5°F8.1°C 77% 5.8 mph WSW9.3 kmh WSW 8.1 mph13.0 kmh 30.03 in1016.9 mb - 0.00 in0.0 mm 0.02 in0.5 mm
09:40 AM 54.1°F12.3°C 46.7°F8.2°C 76% 6.9 mph W11.1 kmh W 10.4 mph16.7 kmh 30.03 in1016.9 mb - 0.00 in0.0 mm 0.02 in0.5 mm
09:45 AM 54.1°F12.3°C 46.3°F7.9°C 75% 4.6 mph WSW7.4 kmh WSW 9.2 mph14.8 kmh 30.04 in1017.3 mb - 0.00 in0.0 mm 0.02 in0.5 mm
09:50 AM 53.9°F12.2°C 46.2°F7.9°C 75% 5.8 mph W9.3 kmh W 11.5 mph18.5 kmh 30.04 in1017.3 mb - 0.00 in0.0 mm 0.02 in0.5 mm
09:55 AM 53.8°F12.1°C 46.1°F7.8°C 75% 4.6 mph WNW7.4 kmh WNW 8.1 mph13.0 kmh 30.04 in1017.3 mb - 0.00 in0.0 mm 0.02 in0.5 mm
10:00 AM 53.7°F12.1°C 46.3°F7.9°C 76% 5.8 mph WSW9.3 kmh WSW 10.4 mph16.7 kmh 30.04 in1017.3 mb - 0.00 in0.0 mm 0.02 in0.5 mm
10:05 AM 53.9°F12.2°C 46.5°F8.1°C 76% 4.6 mph WSW7.4 kmh WSW 6.9 mph11.1 kmh 30.04 in1017.3 mb - 0.00 in0.0 mm 0.02 in0.5 mm
10:10 AM 54.2°F12.3°C 46.8°F8.2°C 76% 3.5 mph W5.6 kmh W 6.9 mph11.1 kmh 30.04 in1017.3 mb - 0.00 in0.0 mm 0.02 in0.5 mm
10:15 AM 54.5°F12.5°C 47.1°F8.4°C 76% 2.3 mph W3.7 kmh W 3.5 mph5.6 kmh 30.04 in1017.3 mb - 0.00 in0.0 mm 0.02 in0.5 mm
10:20 AM 54.8°F12.7°C 47.4°F8.6°C 76% 5.8 mph WSW9.3 kmh WSW 9.2 mph14.8 kmh 30.04 in1017.3 mb - 0.00 in0.0 mm 0.02 in0.5 mm
10:25 AM 55.2°F12.9°C 47.4°F8.6°C 75% 8.1 mph WSW13.0 kmh WSW 11.5 mph18.5 kmh 30.04 in1017.3 mb - 0.00 in0.0 mm 0.02 in0.5 mm
10:30 AM 55.4°F13.0°C 46.9°F8.3°C 73% 5.8 mph WSW9.3 kmh WSW 8.1 mph13.0 kmh 30.04 in1017.3 mb - 0.00 in0.0 mm 0.02 in0.5 mm
10:35 AM 55.5°F13.1°C 47.0°F8.3°C 73% 6.9 mph W11.1 kmh W 11.5 mph18.5 kmh 30.04 in1017.3 mb - 0.00 in0.0 mm 0.02 in0.5 mm
10:40 AM 55.5°F13.1°C 47.0°F8.3°C 73% 6.9 mph WSW11.1 kmh WSW 11.5 mph18.5 kmh 30.05 in1017.6 mb - 0.00 in0.0 mm 0.02 in0.5 mm
10:45 AM 55.3°F12.9°C 47.1°F8.4°C 74% 8.1 mph WSW13.0 kmh WSW 11.5 mph18.5 kmh 30.05 in1017.6 mb - 0.00 in0.0 mm 0.02 in0.5 mm
10:50 AM 54.9°F12.7°C 47.1°F8.4°C 75% 6.9 mph WSW11.1 kmh WSW 10.4 mph16.7 kmh 30.05 in1017.6 mb - 0.00 in0.0 mm 0.02 in0.5 mm
10:55 AM 55.2°F12.9°C 47.8°F8.8°C 76% 5.8 mph WSW9.3 kmh WSW 9.2 mph14.8 kmh 30.05 in1017.6 mb - 0.00 in0.0 mm 0.02 in0.5 mm
11:00 AM 55.4°F13.0°C 47.6°F8.7°C 75% 3.5 mph WNW5.6 kmh WNW 5.8 mph9.3 kmh 30.05 in1017.6 mb - 0.00 in0.0 mm 0.02 in0.5 mm
11:05 AM 55.2°F12.9°C 47.5°F8.6°C 75% 4.6 mph WSW7.4 kmh WSW 9.2 mph14.8 kmh 30.05 in1017.6 mb - 0.00 in0.0 mm 0.02 in0.5 mm
11:10 AM 54.8°F12.7°C 46.7°F8.2°C 74% 4.6 mph W7.4 kmh W 5.8 mph9.3 kmh 30.05 in1017.6 mb - 0.00 in0.0 mm 0.02 in0.5 mm
11:15 AM 55.1°F12.8°C 47.3°F8.5°C 75% 5.8 mph W9.3 kmh W 6.9 mph11.1 kmh 30.05 in1017.6 mb - 0.00 in0.0 mm 0.02 in0.5 mm
11:20 AM 56.0°F13.3°C 47.8°F8.8°C 74% 8.1 mph W13.0 kmh W 12.7 mph20.4 kmh 30.05 in1017.6 mb - 0.00 in0.0 mm 0.02 in0.5 mm
11:25 AM 56.9°F13.8°C 47.6°F8.7°C 71% 6.9 mph W11.1 kmh W 10.4 mph16.7 kmh 30.05 in1017.6 mb - 0.00 in0.0 mm 0.02 in0.5 mm
11:30 AM 57.3°F14.1°C 48.0°F8.9°C 71% 9.2 mph WSW14.8 kmh WSW 18.4 mph29.6 kmh 30.05 in1017.6 mb - 0.00 in0.0 mm 0.02 in0.5 mm
11:35 AM 57.2°F14.0°C 47.1°F8.4°C 69% 6.9 mph WSW11.1 kmh WSW 11.5 mph18.5 kmh 30.05 in1017.6 mb - 0.00 in0.0 mm 0.02 in0.5 mm
11:40 AM 57.8°F14.3°C 47.3°F8.5°C 68% 8.1 mph WSW13.0 kmh WSW 13.8 mph22.2 kmh 30.05 in1017.6 mb - 0.00 in0.0 mm 0.02 in0.5 mm
11:45 AM 58.4°F14.7°C 47.1°F8.4°C 66% 6.9 mph WSW11.1 kmh WSW 12.7 mph20.4 kmh 30.05 in1017.6 mb - 0.00 in0.0 mm 0.02 in0.5 mm
11:50 AM 58.5°F14.7°C 46.4°F8.0°C 64% 10.4 mph WSW16.7 kmh WSW 12.7 mph20.4 kmh 30.05 in1017.6 mb - 0.00 in0.0 mm 0.02 in0.5 mm
11:55 AM 58.6°F14.8°C 46.5°F8.1°C 64% 9.2 mph WSW14.8 kmh WSW 13.8 mph22.2 kmh 30.05 in1017.6 mb - 0.00 in0.0 mm 0.02 in0.5 mm
12:00 PM 58.9°F14.9°C 47.5°F8.6°C 66% 6.9 mph WSW11.1 kmh WSW 9.2 mph14.8 kmh 30.05 in1017.6 mb - 0.00 in0.0 mm 0.02 in0.5 mm
12:05 PM 59.3°F15.2°C 46.3°F7.9°C 62% 6.9 mph WSW11.1 kmh WSW 17.3 mph27.8 kmh 30.05 in1017.6 mb - 0.00 in0.0 mm 0.02 in0.5 mm
12:10 PM 59.3°F15.2°C 46.3°F7.9°C 62% 10.4 mph SW16.7 kmh SW 18.4 mph29.6 kmh 30.06 in1017.9 mb - 0.00 in0.0 mm 0.02 in0.5 mm
12:15 PM 59.5°F15.3°C 46.4°F8.0°C 62% 12.7 mph SW20.4 kmh SW 19.6 mph31.5 kmh 30.06 in1017.9 mb - 0.00 in0.0 mm 0.02 in0.5 mm
12:20 PM 59.4°F15.2°C 46.3°F7.9°C 62% 8.1 mph WSW13.0 kmh WSW 11.5 mph18.5 kmh 30.06 in1017.9 mb - 0.00 in0.0 mm 0.02 in0.5 mm
12:25 PM 59.3°F15.2°C 46.7°F8.2°C 63% 6.9 mph W11.1 kmh W 17.3 mph27.8 kmh 30.06 in1017.9 mb - 0.00 in0.0 mm 0.02 in0.5 mm
12:30 PM 59.7°F15.4°C 46.7°F8.2°C 62% 8.1 mph WSW13.0 kmh WSW 15.0 mph24.1 kmh 30.06 in1017.9 mb - 0.00 in0.0 mm 0.02 in0.5 mm
12:35 PM 59.8°F15.4°C 47.2°F8.4°C 63% 8.1 mph WNW13.0 kmh WNW 17.3 mph27.8 kmh 30.06 in1017.9 mb - 0.00 in0.0 mm 0.02 in0.5 mm
12:40 PM 59.5°F15.3°C 47.3°F8.5°C 64% 6.9 mph WSW11.1 kmh WSW 10.4 mph16.7 kmh 30.06 in1017.9 mb - 0.00 in0.0 mm 0.02 in0.5 mm
12:45 PM 59.8°F15.4°C 48.4°F9.1°C 66% 6.9 mph W11.1 kmh W 11.5 mph18.5 kmh 30.06 in1017.9 mb - 0.00 in0.0 mm 0.02 in0.5 mm
12:50 PM 59.7°F15.4°C 47.9°F8.8°C 65% 5.8 mph W9.3 kmh W 11.5 mph18.5 kmh 30.06 in1017.9 mb - 0.00 in0.0 mm 0.02 in0.5 mm
12:55 PM 60.4°F15.8°C 48.2°F9.0°C 64% 8.1 mph WSW13.0 kmh WSW 11.5 mph18.5 kmh 30.06 in1017.9 mb - 0.00 in0.0 mm 0.02 in0.5 mm
01:00 PM 61.1°F16.2°C 48.0°F8.9°C 62% 13.8 mph WSW22.2 kmh WSW 20.7 mph33.3 kmh 30.06 in1017.9 mb - 0.00 in0.0 mm 0.02 in0.5 mm
01:05 PM 59.7°F15.4°C 46.6°F8.1°C 62% 5.8 mph WSW9.3 kmh WSW 11.5 mph18.5 kmh 30.06 in1017.9 mb - 0.00 in0.0 mm 0.02 in0.5 mm
01:10 PM 59.6°F15.3°C 47.4°F8.6°C 64% 10.4 mph WSW16.7 kmh WSW 15.0 mph24.1 kmh 30.06 in1017.9 mb - 0.00 in0.0 mm 0.02 in0.5 mm
01:15 PM 59.8°F15.4°C 48.0°F8.9°C 65% 11.5 mph WSW18.5 kmh WSW 17.3 mph27.8 kmh 30.06 in1017.9 mb - 0.00 in0.0 mm 0.02 in0.5 mm
01:20 PM 60.0°F15.6°C 47.0°F8.3°C 62% 8.1 mph W13.0 kmh W 11.5 mph18.5 kmh 30.06 in1017.9 mb - 0.00 in0.0 mm 0.02 in0.5 mm
01:25 PM 60.5°F15.8°C 46.5°F8.1°C 60% 9.2 mph WSW14.8 kmh WSW 11.5 mph18.5 kmh 30.06 in1017.9 mb - 0.00 in0.0 mm 0.02 in0.5 mm
01:30 PM 60.8°F16.0°C 47.3°F8.5°C 61% 9.2 mph WSW14.8 kmh WSW 19.6 mph31.5 kmh 30.06 in1017.9 mb - 0.00 in0.0 mm 0.02 in0.5 mm
01:35 PM 61.1°F16.2°C 47.1°F8.4°C 60% 9.2 mph W14.8 kmh W 15.0 mph24.1 kmh 30.06 in1017.9 mb - 0.00 in0.0 mm 0.02 in0.5 mm
01:40 PM 61.2°F16.2°C 46.3°F7.9°C 58% 11.5 mph WSW18.5 kmh WSW 17.3 mph27.8 kmh 30.06 in1017.9 mb - 0.00 in0.0 mm 0.02 in0.5 mm
01:45 PM 61.2°F16.2°C 46.3°F7.9°C 58% 11.5 mph W18.5 kmh W 19.6 mph31.5 kmh 30.06 in1017.9 mb - 0.00 in0.0 mm 0.02 in0.5 mm
01:50 PM 60.2°F15.7°C 47.5°F8.6°C 63% 12.7 mph W20.4 kmh W 18.4 mph29.6 kmh 30.07 in1018.3 mb - 0.01 in0.3 mm 0.03 in0.8 mm
01:55 PM 58.1°F14.5°C 48.7°F9.3°C 71% 8.1 mph WNW13.0 kmh WNW 18.4 mph29.6 kmh 30.07 in1018.3 mb - 0.00 in0.0 mm 0.03 in0.8 mm
02:00 PM 57.0°F13.9°C 48.1°F8.9°C 72% 8.1 mph W13.0 kmh W 11.5 mph18.5 kmh 30.07 in1018.3 mb - 0.00 in0.0 mm 0.03 in0.8 mm
02:05 PM 56.2°F13.4°C 47.7°F8.7°C 73% 6.9 mph WSW11.1 kmh WSW 15.0 mph24.1 kmh 30.07 in1018.3 mb - 0.00 in0.0 mm 0.03 in0.8 mm
02:10 PM 55.9°F13.3°C 47.8°F8.8°C 74% 5.8 mph WSW9.3 kmh WSW 12.7 mph20.4 kmh 30.07 in1018.3 mb - 0.00 in0.0 mm 0.03 in0.8 mm
02:15 PM 56.9°F13.8°C 47.9°F8.8°C 72% 6.9 mph WSW11.1 kmh WSW 13.8 mph22.2 kmh 30.07 in1018.3 mb - 0.00 in0.0 mm 0.03 in0.8 mm
02:20 PM 57.7°F14.3°C 48.4°F9.1°C 71% 6.9 mph W11.1 kmh W 9.2 mph14.8 kmh 30.07 in1018.3 mb - 0.00 in0.0 mm 0.03 in0.8 mm
02:25 PM 58.2°F14.6°C 47.7°F8.7°C 68% 10.4 mph WSW16.7 kmh WSW 16.1 mph25.9 kmh 30.07 in1018.3 mb - 0.00 in0.0 mm 0.03 in0.8 mm
02:30 PM 57.1°F13.9°C 47.4°F8.6°C 70% 11.5 mph WSW18.5 kmh WSW 18.4 mph29.6 kmh 30.08 in1018.6 mb - 0.00 in0.0 mm 0.03 in0.8 mm
02:35 PM 55.2°F12.9°C 47.4°F8.6°C 75% 6.9 mph WSW11.1 kmh WSW 11.5 mph18.5 kmh 30.08 in1018.6 mb - 0.00 in0.0 mm 0.03 in0.8 mm
02:40 PM 54.4°F12.4°C 47.3°F8.5°C 77% 3.5 mph WSW5.6 kmh WSW 6.9 mph11.1 kmh 30.08 in1018.6 mb - 0.00 in0.0 mm 0.03 in0.8 mm
02:45 PM 54.8°F12.7°C 47.7°F8.7°C 77% 8.1 mph WSW13.0 kmh WSW 13.8 mph22.2 kmh 30.07 in1018.3 mb - 0.00 in0.0 mm 0.03 in0.8 mm
02:50 PM 54.7°F12.6°C 47.6°F8.7°C 77% 6.9 mph WSW11.1 kmh WSW 10.4 mph16.7 kmh 30.07 in1018.3 mb - 0.00 in0.0 mm 0.03 in0.8 mm
02:55 PM 55.0°F12.8°C 47.6°F8.7°C 76% 9.2 mph WSW14.8 kmh WSW 12.7 mph20.4 kmh 30.07 in1018.3 mb - 0.00 in0.0 mm 0.03 in0.8 mm
03:00 PM 55.4°F13.0°C 47.6°F8.7°C 75% 8.1 mph WSW13.0 kmh WSW 13.8 mph22.2 kmh 30.07 in1018.3 mb - 0.00 in0.0 mm 0.03 in0.8 mm
03:05 PM 55.8°F13.2°C 47.3°F8.5°C 73% 11.5 mph WSW18.5 kmh WSW 16.1 mph25.9 kmh 30.07 in1018.3 mb - 0.00 in0.0 mm 0.03 in0.8 mm
03:10 PM 56.1°F13.4°C 47.5°F8.6°C 73% 10.4 mph WSW16.7 kmh WSW 16.1 mph25.9 kmh 30.07 in1018.3 mb - 0.00 in0.0 mm 0.03 in0.8 mm
03:15 PM 56.4°F13.6°C 47.1°F8.4°C 71% 9.2 mph WSW14.8 kmh WSW 11.5 mph18.5 kmh 30.07 in1018.3 mb - 0.00 in0.0 mm 0.03 in0.8 mm
03:20 PM 56.8°F13.8°C 47.1°F8.4°C 70% 8.1 mph WSW13.0 kmh WSW 15.0 mph24.1 kmh 30.07 in1018.3 mb - 0.00 in0.0 mm 0.03 in0.8 mm
03:25 PM 57.0°F13.9°C 46.9°F8.3°C 69% 10.4 mph WSW16.7 kmh WSW 11.5 mph18.5 kmh 30.07 in1018.3 mb - 0.00 in0.0 mm 0.03 in0.8 mm
03:30 PM 57.1°F13.9°C 47.0°F8.3°C 69% 8.1 mph WSW13.0 kmh WSW 12.7 mph20.4 kmh 30.07 in1018.3 mb - 0.00 in0.0 mm 0.03 in0.8 mm
03:35 PM 57.2°F14.0°C 46.7°F8.2°C 68% 9.2 mph WSW14.8 kmh WSW 11.5 mph18.5 kmh 30.07 in1018.3 mb - 0.00 in0.0 mm 0.03 in0.8 mm
03:40 PM 57.2°F14.0°C 47.1°F8.4°C 69% 6.9 mph WSW11.1 kmh WSW 18.4 mph29.6 kmh 30.07 in1018.3 mb - 0.00 in0.0 mm 0.03 in0.8 mm
03:45 PM 57.2°F14.0°C 46.7°F8.2°C 68% 8.1 mph WSW13.0 kmh WSW 13.8 mph22.2 kmh 30.07 in1018.3 mb - 0.00 in0.0 mm 0.03 in0.8 mm
03:50 PM 56.9°F13.8°C 46.4°F8.0°C 68% 9.2 mph WSW14.8 kmh WSW 15.0 mph24.1 kmh 30.07 in1018.3 mb - 0.00 in0.0 mm 0.03 in0.8 mm
03:55 PM 56.6°F13.7°C 46.5°F8.1°C 69% 8.1 mph WSW13.0 kmh WSW 19.6 mph31.5 kmh 30.07 in1018.3 mb - 0.00 in0.0 mm 0.03 in0.8 mm
04:00 PM 56.3°F13.5°C 46.3°F7.9°C 69% 6.9 mph WNW11.1 kmh WNW 13.8 mph22.2 kmh 30.07 in1018.3 mb - 0.00 in0.0 mm 0.03 in0.8 mm
04:05 PM 56.2°F13.4°C 46.5°F8.1°C 70% 3.5 mph SW5.6 kmh SW 6.9 mph11.1 kmh 30.07 in1018.3 mb - 0.00 in0.0 mm 0.03 in0.8 mm
04:10 PM 56.0°F13.3°C 46.3°F7.9°C 70% 6.9 mph W11.1 kmh W 11.5 mph18.5 kmh 30.07 in1018.3 mb - 0.01 in0.3 mm 0.03 in0.8 mm
04:15 PM 56.0°F13.3°C 46.3°F7.9°C 70% 5.8 mph W9.3 kmh W 9.2 mph14.8 kmh 30.07 in1018.3 mb - 0.00 in0.0 mm 0.03 in0.8 mm
04:20 PM 55.9°F13.3°C 45.9°F7.7°C 69% 4.6 mph W7.4 kmh W 8.1 mph13.0 kmh 30.07 in1018.3 mb - 0.00 in0.0 mm 0.03 in0.8 mm
04:25 PM 55.7°F13.2°C 46.1°F7.8°C 70% 9.2 mph W14.8 kmh W 15.0 mph24.1 kmh 30.07 in1018.3 mb - 0.00 in0.0 mm 0.03 in0.8 mm
04:30 PM 55.7°F13.2°C 46.1°F7.8°C 70% 5.8 mph WNW9.3 kmh WNW 11.5 mph18.5 kmh 30.07 in1018.3 mb - 0.00 in0.0 mm 0.03 in0.8 mm
04:35 PM 55.7°F13.2°C 46.1°F7.8°C 70% 6.9 mph WNW11.1 kmh WNW 12.7 mph20.4 kmh 30.07 in1018.3 mb - 0.00 in0.0 mm 0.03 in0.8 mm
04:40 PM 55.5°F13.1°C 45.8°F7.7°C 70% 5.8 mph W9.3 kmh W 9.2 mph14.8 kmh 30.07 in1018.3 mb - 0.00 in0.0 mm 0.03 in0.8 mm
04:45 PM 55.3°F12.9°C 46.0°F7.8°C 71% 5.8 mph WSW9.3 kmh WSW 9.2 mph14.8 kmh 30.07 in1018.3 mb - 0.00 in0.0 mm 0.03 in0.8 mm
04:50 PM 55.1°F12.8°C 46.2°F7.9°C 72% 4.6 mph W7.4 kmh W 8.1 mph13.0 kmh 30.07 in1018.3 mb - 0.00 in0.0 mm 0.03 in0.8 mm
04:55 PM 55.1°F12.8°C 46.6°F8.1°C 73% 5.8 mph W9.3 kmh W 8.1 mph13.0 kmh 30.07 in1018.3 mb - 0.00 in0.0 mm 0.03 in0.8 mm
05:00 PM 55.0°F12.8°C 46.5°F8.1°C 73% 6.9 mph WSW11.1 kmh WSW 11.5 mph18.5 kmh 30.07 in1018.3 mb - 0.00 in0.0 mm 0.03 in0.8 mm
05:05 PM 54.8°F12.7°C 47.0°F8.3°C 75% 4.6 mph WSW7.4 kmh WSW 12.7 mph20.4 kmh 30.07 in1018.3 mb - 0.00 in0.0 mm 0.03 in0.8 mm
05:10 PM 54.3°F12.4°C 46.9°F8.3°C 76% 8.1 mph WSW13.0 kmh WSW 12.7 mph20.4 kmh 30.07 in1018.3 mb - 0.00 in0.0 mm 0.03 in0.8 mm
05:15 PM 53.7°F12.1°C 46.3°F7.9°C 76% 6.9 mph WSW11.1 kmh WSW 9.2 mph14.8 kmh 30.07 in1018.3 mb - 0.00 in0.0 mm 0.03 in0.8 mm
05:20 PM 53.4°F11.9°C 46.0°F7.8°C 76% 5.8 mph WSW9.3 kmh WSW 11.5 mph18.5 kmh 30.07 in1018.3 mb - 0.00 in0.0 mm 0.03 in0.8 mm
05:25 PM 53.2°F11.8°C 45.8°F7.7°C 76% 6.9 mph WSW11.1 kmh WSW 10.4 mph16.7 kmh 30.07 in1018.3 mb - 0.00 in0.0 mm 0.03 in0.8 mm
05:30 PM 53.0°F11.7°C 46.0°F7.8°C 77% 4.6 mph WSW7.4 kmh WSW 9.2 mph14.8 kmh 30.07 in1018.3 mb - 0.00 in0.0 mm 0.03 in0.8 mm
05:35 PM 52.9°F11.6°C 45.9°F7.7°C 77% 4.6 mph WSW7.4 kmh WSW 9.2 mph14.8 kmh 30.07 in1018.3 mb - 0.00 in0.0 mm 0.03 in0.8 mm
05:40 PM 52.9°F11.6°C 45.9°F7.7°C 77% 3.5 mph WSW5.6 kmh WSW 11.5 mph18.5 kmh 30.07 in1018.3 mb - 0.00 in0.0 mm 0.03 in0.8 mm
05:45 PM 52.7°F11.5°C 45.4°F7.4°C 76% 6.9 mph W11.1 kmh W 11.5 mph18.5 kmh 30.07 in1018.3 mb - 0.00 in0.0 mm 0.03 in0.8 mm
05:50 PM 52.6°F11.4°C 45.2°F7.3°C 76% 5.8 mph W9.3 kmh W 9.2 mph14.8 kmh 30.07 in1018.3 mb - 0.00 in0.0 mm 0.03 in0.8 mm
05:55 PM 52.4°F11.3°C 45.1°F7.3°C 76% 4.6 mph WSW7.4 kmh WSW 8.1 mph13.0 kmh 30.07 in1018.3 mb - 0.00 in0.0 mm 0.03 in0.8 mm
06:00 PM 52.3°F11.3°C 45.0°F7.2°C 76% 2.3 mph WSW3.7 kmh WSW 9.2 mph14.8 kmh 30.07 in1018.3 mb - 0.00 in0.0 mm 0.03 in0.8 mm
06:05 PM 52.1°F11.2°C 44.8°F7.1°C 76% 3.5 mph W5.6 kmh W 3.5 mph5.6 kmh 30.07 in1018.3 mb - 0.00 in0.0 mm 0.03 in0.8 mm
06:10 PM 51.9°F11.1°C 44.9°F7.2°C 77% 2.3 mph W3.7 kmh W 3.5 mph5.6 kmh 30.07 in1018.3 mb - 0.00 in0.0 mm 0.03 in0.8 mm
06:15 PM 51.8°F11.0°C 44.8°F7.1°C 77% 2.3 mph W3.7 kmh W 3.5 mph5.6 kmh 30.07 in1018.3 mb - 0.00 in0.0 mm 0.03 in0.8 mm
06:20 PM 51.6°F10.9°C 44.6°F7.0°C 77% 1.2 mph W1.9 kmh W 3.5 mph5.6 kmh 30.07 in1018.3 mb - 0.00 in0.0 mm 0.03 in0.8 mm
06:25 PM 51.5°F10.8°C 44.5°F6.9°C 77% 2.3 mph W3.7 kmh W 6.9 mph11.1 kmh 30.07 in1018.3 mb - 0.00 in0.0 mm 0.03 in0.8 mm
06:30 PM 51.3°F10.7°C 44.3°F6.8°C 77% 1.2 mph WSW1.9 kmh WSW 3.5 mph5.6 kmh 30.07 in1018.3 mb - 0.00 in0.0 mm 0.03 in0.8 mm
06:35 PM 51.3°F10.7°C 44.3°F6.8°C 77% 2.3 mph WSW3.7 kmh WSW 3.5 mph5.6 kmh 30.08 in1018.6 mb - 0.00 in0.0 mm 0.03 in0.8 mm
06:40 PM 51.3°F10.7°C 44.3°F6.8°C 77% 3.5 mph W5.6 kmh W 5.8 mph9.3 kmh 30.08 in1018.6 mb - 0.00 in0.0 mm 0.03 in0.8 mm
06:45 PM 51.4°F10.8°C 44.4°F6.9°C 77% 2.3 mph W3.7 kmh W 3.5 mph5.6 kmh 30.08 in1018.6 mb - 0.00 in0.0 mm 0.03 in0.8 mm
06:50 PM 51.3°F10.7°C 44.3°F6.8°C 77% 2.3 mph WSW3.7 kmh WSW 3.5 mph5.6 kmh 30.08 in1018.6 mb - 0.00 in0.0 mm 0.03 in0.8 mm
06:55 PM 51.2°F10.7°C 44.6°F7.0°C 78% 2.3 mph W3.7 kmh W 3.5 mph5.6 kmh 30.08 in1018.6 mb - 0.00 in0.0 mm 0.03 in0.8 mm
07:00 PM 51.0°F10.6°C 44.3°F6.8°C 78% 2.3 mph W3.7 kmh W 6.9 mph11.1 kmh 30.08 in1018.6 mb - 0.00 in0.0 mm 0.03 in0.8 mm
07:05 PM 50.7°F10.4°C 43.8°F6.6°C 77% 2.3 mph W3.7 kmh W 3.5 mph5.6 kmh 30.08 in1018.6 mb - 0.00 in0.0 mm 0.03 in0.8 mm
07:10 PM 50.5°F10.3°C 43.9°F6.6°C 78% 2.3 mph W3.7 kmh W 3.5 mph5.6 kmh 30.08 in1018.6 mb - 0.00 in0.0 mm 0.03 in0.8 mm
07:15 PM 50.3°F10.2°C 43.7°F6.5°C 78% 2.3 mph W3.7 kmh W 3.5 mph5.6 kmh 30.08 in1018.6 mb - 0.00 in0.0 mm 0.03 in0.8 mm
07:20 PM 50.1°F10.1°C 43.5°F6.4°C 78% 2.3 mph WSW3.7 kmh WSW 6.9 mph11.1 kmh 30.07 in1018.3 mb - 0.00 in0.0 mm 0.03 in0.8 mm
07:25 PM 49.9°F9.9°C 43.3°F6.3°C 78% 1.2 mph WSW1.9 kmh WSW 2.3 mph3.7 kmh 30.08 in1018.6 mb - 0.00 in0.0 mm 0.03 in0.8 mm
07:30 PM 49.7°F9.8°C 43.1°F6.2°C 78% Calm Calm 2.3 mph3.7 kmh 30.08 in1018.6 mb - 0.00 in0.0 mm 0.03 in0.8 mm
07:35 PM 49.5°F9.7°C 42.9°F6.1°C 78% 2.3 mph SW3.7 kmh SW 3.5 mph5.6 kmh 30.08 in1018.6 mb - 0.00 in0.0 mm 0.03 in0.8 mm
07:40 PM 49.3°F9.6°C 42.7°F5.9°C 78% 2.3 mph WSW3.7 kmh WSW 2.3 mph3.7 kmh 30.08 in1018.6 mb - 0.00 in0.0 mm 0.03 in0.8 mm
07:45 PM 49.2°F9.6°C 42.6°F5.9°C 78% 1.2 mph WSW1.9 kmh WSW 2.3 mph3.7 kmh 30.07 in1018.3 mb - 0.00 in0.0 mm 0.03 in0.8 mm
07:50 PM 49.0°F9.4°C 42.4°F5.8°C 78% 1.2 mph WSW1.9 kmh WSW 2.3 mph3.7 kmh 30.07 in1018.3 mb - 0.00 in0.0 mm 0.03 in0.8 mm
07:55 PM 48.8°F9.3°C 42.2°F5.7°C 78% Calm Calm -- 30.07 in1018.3 mb - 0.00 in0.0 mm 0.03 in0.8 mm
08:00 PM 48.7°F9.3°C 42.1°F5.6°C 78% 1.2 mph WSW1.9 kmh WSW 2.3 mph3.7 kmh 30.07 in1018.3 mb - 0.00 in0.0 mm 0.03 in0.8 mm
08:05 PM 48.6°F9.2°C 42.0°F5.6°C 78% 1.2 mph WSW1.9 kmh WSW 2.3 mph3.7 kmh 30.08 in1018.6 mb - 0.01 in0.3 mm 0.04 in1.0 mm
08:10 PM 48.5°F9.2°C 42.0°F5.6°C 78% 2.3 mph WSW3.7 kmh WSW 3.5 mph5.6 kmh 30.08 in1018.6 mb - 0.00 in0.0 mm 0.04 in1.0 mm
08:15 PM 48.3°F9.1°C 41.8°F5.4°C 78% 1.2 mph WSW1.9 kmh WSW 2.3 mph3.7 kmh 30.07 in1018.3 mb - 0.00 in0.0 mm 0.04 in1.0 mm
08:20 PM 48.2°F9.0°C 41.3°F5.2°C 77% 2.3 mph NW3.7 kmh NW 3.5 mph5.6 kmh 30.07 in1018.3 mb - 0.00 in0.0 mm 0.04 in1.0 mm
08:25 PM 48.3°F9.1°C 41.4°F5.2°C 77% Calm Calm -- 30.07 in1018.3 mb - 0.00 in0.0 mm 0.04 in1.0 mm
08:30 PM 48.5°F9.2°C 42.0°F5.6°C 78% Calm Calm -- 30.07 in1018.3 mb - 0.00 in0.0 mm 0.04 in1.0 mm
08:35 PM 48.6°F9.2°C 41.7°F5.4°C 77% Calm Calm -- 30.07 in1018.3 mb - 0.00 in0.0 mm 0.04 in1.0 mm
08:40 PM 48.7°F9.3°C 41.8°F5.4°C 77% Calm Calm -- 30.07 in1018.3 mb - 0.00 in0.0 mm 0.04 in1.0 mm
08:45 PM 48.9°F9.4°C 42.0°F5.6°C 77% Calm Calm -- 30.07 in1018.3 mb - 0.00 in0.0 mm 0.04 in1.0 mm
08:50 PM 49.1°F9.5°C 42.2°F5.7°C 77% 1.2 mph SE1.9 kmh SE 2.3 mph3.7 kmh 30.07 in1018.3 mb - 0.00 in0.0 mm 0.04 in1.0 mm
08:55 PM 49.1°F9.5°C 42.2°F5.7°C 77% Calm Calm -- 30.07 in1018.3 mb - 0.00 in0.0 mm 0.04 in1.0 mm
09:00 PM 49.1°F9.5°C 42.2°F5.7°C 77% Calm Calm 1.2 mph1.9 kmh 30.07 in1018.3 mb - 0.00 in0.0 mm 0.04 in1.0 mm
09:05 PM 49.0°F9.4°C 42.1°F5.6°C 77% Calm Calm -- 30.07 in1018.3 mb - 0.00 in0.0 mm 0.04 in1.0 mm
09:10 PM 49.0°F9.4°C 42.1°F5.6°C 77% Calm Calm -- 30.06 in1017.9 mb - 0.00 in0.0 mm 0.04 in1.0 mm
09:15 PM 48.8°F9.3°C 41.9°F5.5°C 77% Calm Calm -- 30.06 in1017.9 mb - 0.00 in0.0 mm 0.04 in1.0 mm
09:20 PM 48.6°F9.2°C 41.7°F5.4°C 77% Calm Calm -- 30.06 in1017.9 mb - 0.00 in0.0 mm 0.04 in1.0 mm
09:25 PM 48.5°F9.2°C 41.6°F5.3°C 77% 1.2 mph SE1.9 kmh SE 2.3 mph3.7 kmh 30.06 in1017.9 mb - 0.00 in0.0 mm 0.04 in1.0 mm
09:30 PM 48.5°F9.2°C 41.6°F5.3°C 77% Calm Calm 1.2 mph1.9 kmh 30.06 in1017.9 mb - 0.00 in0.0 mm 0.04 in1.0 mm
09:35 PM 48.4°F9.1°C 41.5°F5.3°C 77% 1.2 mph SE1.9 kmh SE 2.3 mph3.7 kmh 30.05 in1017.6 mb - 0.00 in0.0 mm 0.04 in1.0 mm
09:40 PM 48.4°F9.1°C 41.5°F5.3°C 77% 1.2 mph SE1.9 kmh SE 1.2 mph1.9 kmh 30.06 in1017.9 mb - 0.00 in0.0 mm 0.04 in1.0 mm
09:45 PM 48.3°F9.1°C 41.4°F5.2°C 77% Calm Calm -- 30.05 in1017.6 mb - 0.00 in0.0 mm 0.04 in1.0 mm
09:50 PM 48.4°F9.1°C 41.5°F5.3°C 77% Calm Calm -- 30.05 in1017.6 mb - 0.00 in0.0 mm 0.04 in1.0 mm
09:55 PM 48.4°F9.1°C 41.5°F5.3°C 77% Calm Calm -- 30.05 in1017.6 mb - 0.00 in0.0 mm 0.04 in1.0 mm
10:00 PM 48.4°F9.1°C 41.5°F5.3°C 77% Calm Calm -- 30.05 in1017.6 mb - 0.00 in0.0 mm 0.04 in1.0 mm
10:05 PM 48.5°F9.2°C 41.6°F5.3°C 77% Calm Calm -- 30.05 in1017.6 mb - 0.00 in0.0 mm 0.04 in1.0 mm
10:10 PM 48.5°F9.2°C 41.6°F5.3°C 77% 2.3 mph SE3.7 kmh SE 3.5 mph5.6 kmh 30.05 in1017.6 mb - 0.00 in0.0 mm 0.04 in1.0 mm
10:15 PM 48.6°F9.2°C 41.7°F5.4°C 77% 2.3 mph E3.7 kmh E 3.5 mph5.6 kmh 30.05 in1017.6 mb - 0.00 in0.0 mm 0.04 in1.0 mm
10:20 PM 48.6°F9.2°C 41.7°F5.4°C 77% 2.3 mph E3.7 kmh E 2.3 mph3.7 kmh 30.05 in1017.6 mb - 0.00 in0.0 mm 0.04 in1.0 mm
10:25 PM 48.6°F9.2°C 41.7°F5.4°C 77% 1.2 mph E1.9 kmh E 3.5 mph5.6 kmh 30.05 in1017.6 mb - 0.00 in0.0 mm 0.04 in1.0 mm
10:30 PM 48.6°F9.2°C 41.7°F5.4°C 77% 3.5 mph E5.6 kmh E 5.8 mph9.3 kmh 30.05 in1017.6 mb - 0.00 in0.0 mm 0.04 in1.0 mm
10:35 PM 48.7°F9.3°C 41.8°F5.4°C 77% 3.5 mph E5.6 kmh E 4.6 mph7.4 kmh 30.04 in1017.3 mb - 0.00 in0.0 mm 0.04 in1.0 mm
10:40 PM 48.9°F9.4°C 42.0°F5.6°C 77% 3.5 mph E5.6 kmh E 3.5 mph5.6 kmh 30.04 in1017.3 mb - 0.00 in0.0 mm 0.04 in1.0 mm
10:45 PM 49.0°F9.4°C 42.1°F5.6°C 77% Calm Calm -- 30.04 in1017.3 mb - 0.00 in0.0 mm 0.04 in1.0 mm
10:50 PM 48.8°F9.3°C 41.9°F5.5°C 77% 2.3 mph ENE3.7 kmh ENE 3.5 mph5.6 kmh 30.04 in1017.3 mb - 0.00 in0.0 mm 0.04 in1.0 mm
10:55 PM 48.7°F9.3°C 41.8°F5.4°C 77% 1.2 mph ENE1.9 kmh ENE 2.3 mph3.7 kmh 30.04 in1017.3 mb - 0.00 in0.0 mm 0.04 in1.0 mm
11:00 PM 48.6°F9.2°C 41.7°F5.4°C 77% Calm Calm -- 30.04 in1017.3 mb - 0.00 in0.0 mm 0.06 in1.5 mm
11:05 PM 48.7°F9.3°C 41.8°F5.4°C 77% Calm Calm -- 30.04 in1017.3 mb - 0.00 in0.0 mm 0.06 in1.5 mm
11:10 PM 48.7°F9.3°C 41.8°F5.4°C 77% Calm Calm -- 30.04 in1017.3 mb - 0.00 in0.0 mm 0.06 in1.5 mm
11:15 PM 48.7°F9.3°C 41.8°F5.4°C 77% Calm Calm -- 30.04 in1017.3 mb - 0.00 in0.0 mm 0.06 in1.5 mm
11:20 PM 48.7°F9.3°C 41.8°F5.4°C 77% Calm Calm -- 30.04 in1017.3 mb - 0.00 in0.0 mm 0.06 in1.5 mm
11:25 PM 48.7°F9.3°C 41.8°F5.4°C 77% Calm Calm -- 30.03 in1016.9 mb - 0.00 in0.0 mm 0.06 in1.5 mm
11:30 PM 48.7°F9.3°C 41.8°F5.4°C 77% 1.2 mph E1.9 kmh E 2.3 mph3.7 kmh 30.03 in1016.9 mb - 0.00 in0.0 mm 0.06 in1.5 mm
11:35 PM 48.7°F9.3°C 41.8°F5.4°C 77% Calm Calm -- 30.03 in1016.9 mb - 0.00 in0.0 mm 0.06 in1.5 mm
11:40 PM 48.7°F9.3°C 41.8°F5.4°C 77% 1.2 mph WNW1.9 kmh WNW 4.6 mph7.4 kmh 30.03 in1016.9 mb - 0.00 in0.0 mm 0.06 in1.5 mm
11:45 PM 48.7°F9.3°C 41.8°F5.4°C 77% 2.3 mph WNW3.7 kmh WNW 3.5 mph5.6 kmh 30.03 in1016.9 mb - 0.00 in0.0 mm 0.06 in1.5 mm
11:50 PM 48.8°F9.3°C 41.9°F5.5°C 77% 1.2 mph WSW1.9 kmh WSW 3.5 mph5.6 kmh 30.03 in1016.9 mb - 0.00 in0.0 mm 0.06 in1.5 mm
11:55 PM 48.9°F9.4°C 42.0°F5.6°C 77% Calm Calm 1.2 mph1.9 kmh 30.03 in1016.9 mb - 0.00 in0.0 mm 0.06 in1.5 mm